Time,TemperatureF,DewpointF,PressureIn,WindDirection,WindDirectionDegrees,WindSpeedMPH,WindSpeedGustMPH,Humidity,HourlyPrecipIn,Conditions,Clouds,dailyrainin,SoftwareType,DateUTC
2013-05-18 00:01:00,58.1,56.4,29.82,SSW,202,8.3,8.3,94,0.10,RA,,0.01,WeatherDisplay:10.37,2013-05-18 06:01:00,
2013-05-18 00:06:00,58.1,56.7,29.82,SW,225,5.5,8.1,95,0.13,RA,,0.03,WeatherDisplay:10.37,2013-05-18 06:06:00,
2013-05-18 00:11:00,57.9,56.5,29.82,SSW,202,3.4,4.6,95,0.15,RA,,0.05,WeatherDisplay:10.37,2013-05-18 06:11:00,
2013-05-18 00:16:00,57.9,56.5,29.79,South,180,3.2,4.6,95,0.16,RA,,0.07,WeatherDisplay:10.37,2013-05-18 06:16:00,
2013-05-18 00:21:00,57.9,56.5,29.79,ENE,68,5.6,5.8,95,0.17,RA,,0.09,WeatherDisplay:10.37,2013-05-18 06:21:00,
2013-05-18 00:26:00,57.7,56.3,29.79,SE,135,6.9,7.3,95,0.17,RA,,0.10,WeatherDisplay:10.37,2013-05-18 06:26:00,
2013-05-18 00:31:00,57.6,56.2,29.71,ESE,112,9.4,10.9,95,0.18,RA,,0.10,WeatherDisplay:10.37,2013-05-18 06:31:00,
2013-05-18 00:36:00,57.6,56.2,29.71,SE,135,10.4,10.4,95,0.17,RA,,0.10,WeatherDisplay:10.37,2013-05-18 06:36:00,
2013-05-18 00:41:00,57.6,56.2,29.74,ESE,112,4.8,10.4,95,0.17,OVC,,0.10,WeatherDisplay:10.37,2013-05-18 06:41:00,
2013-05-18 00:46:00,57.6,56.2,29.74,South,180,4.0,4.2,95,0.16,OVC,,0.10,WeatherDisplay:10.37,2013-05-18 06:46:00,
2013-05-18 00:51:00,57.6,56.2,29.76,WNW,292,0.6,4.6,95,0.15,OVC,,0.10,WeatherDisplay:10.37,2013-05-18 06:51:00,
2013-05-18 00:56:00,57.4,56.0,29.76,ENE,68,2.5,4.6,95,0.12,OVC,,0.10,WeatherDisplay:10.37,2013-05-18 06:56:00,
2013-05-18 01:01:00,57.4,56.0,29.76,ENE,68,2.9,3.5,95,0.09,OVC,,0.10,WeatherDisplay:10.37,2013-05-18 07:01:00,
2013-05-18 01:06:00,57.2,56.1,29.75,NE,45,3.8,4.6,96,0.07,OVC,,0.10,WeatherDisplay:10.37,2013-05-18 07:06:00,
2013-05-18 01:11:00,57.2,56.1,29.75,South,180,0.1,2.3,96,0.05,FEW,,0.10,WeatherDisplay:10.37,2013-05-18 07:11:00,
2013-05-18 01:16:00,57.0,55.9,29.76,SE,135,3.5,3.5,96,0.03,FEW,,0.10,WeatherDisplay:10.37,2013-05-18 07:16:00,
2013-05-18 01:21:00,57.0,55.9,29.76,NNW,338,3.2,3.7,96,0.01,FEW,,0.10,WeatherDisplay:10.37,2013-05-18 07:21:00,
2013-05-18 01:26:00,57.2,56.4,29.76,ESE,112,5.4,6.9,97,0.00,FEW,,0.10,WeatherDisplay:10.37,2013-05-18 07:26:00,
2013-05-18 01:32:00,57.2,56.4,29.77,NE,45,3.3,3.5,97,0.00,FEW,,0.10,WeatherDisplay:10.37,2013-05-18 07:32:00,
2013-05-18 01:36:00,57.2,56.4,29.77,SE,135,2.0,2.3,97,0.00,FEW,,0.10,WeatherDisplay:10.37,2013-05-18 07:36:00,
2013-05-18 01:42:00,57.2,56.4,29.77,South,180,1.7,2.3,97,0.00,FEW,,0.10,WeatherDisplay:10.37,2013-05-18 07:42:00,
2013-05-18 01:47:00,57.2,56.4,29.77,SSE,158,2.1,2.7,97,0.00,FEW,,0.10,WeatherDisplay:10.37,2013-05-18 07:47:00,
2013-05-18 01:52:00,57.4,56.6,29.77,West,270,3.3,3.5,97,0.00,OVC,,0.10,WeatherDisplay:10.37,2013-05-18 07:52:00,
2013-05-18 01:57:00,57.4,56.6,29.78,SE,135,5.3,5.8,97,0.00,OVC,,0.10,WeatherDisplay:10.37,2013-05-18 07:57:00,
2013-05-18 02:02:00,57.4,56.6,29.78,SSE,158,4.0,4.7,97,0.00,OVC,,0.10,WeatherDisplay:10.37,2013-05-18 08:02:00,
2013-05-18 02:07:00,57.4,56.6,29.78,SSW,202,1.8,2.3,97,0.00,OVC,,0.10,WeatherDisplay:10.37,2013-05-18 08:07:00,
2013-05-18 02:12:00,57.4,56.6,29.78,SE,135,2.5,2.7,97,0.00,OVC,,0.10,WeatherDisplay:10.37,2013-05-18 08:12:00,
2013-05-18 02:17:00,57.4,56.6,29.77,ESE,112,3.3,3.5,97,0.00,OVC,,0.10,WeatherDisplay:10.37,2013-05-18 08:17:00,
2013-05-18 02:22:00,57.4,56.6,29.77,SE,135,2.7,2.7,97,0.00,OVC,,0.10,WeatherDisplay:10.37,2013-05-18 08:22:00,
2013-05-18 02:27:00,57.4,56.6,29.77,ESE,112,2.7,3.5,97,0.00,OVC,,0.10,WeatherDisplay:10.37,2013-05-18 08:27:00,
2013-05-18 02:32:00,57.4,56.6,29.77,ESE,112,3.6,4.2,97,0.00,OVC,,0.10,WeatherDisplay:10.37,2013-05-18 08:32:00,
2013-05-18 02:37:00,57.2,56.4,29.77,ESE,112,1.9,2.3,97,0.00,OVC,,0.10,WeatherDisplay:10.37,2013-05-18 08:37:00,
2013-05-18 02:42:00,57.0,56.2,29.76,East,90,0.0,0.0,97,0.00,OVC,,0.10,WeatherDisplay:10.37,2013-05-18 08:42:00,
2013-05-18 02:47:00,57.0,56.2,29.76,NE,45,0.0,0.0,97,0.00,OVC,,0.10,WeatherDisplay:10.37,2013-05-18 08:47:00,
2013-05-18 02:52:00,56.8,56.0,29.76,NNE,22,0.3,1.1,97,0.00,CLR,,0.10,WeatherDisplay:10.37,2013-05-18 08:52:00,
2013-05-18 02:57:00,56.7,55.9,29.76,SSE,158,2.6,2.7,97,0.00,CLR,,0.10,WeatherDisplay:10.37,2013-05-18 08:57:00,
2013-05-18 03:02:00,56.7,55.9,29.76,NNE,22,0.0,0.0,97,0.00,CLR,,0.10,WeatherDisplay:10.37,2013-05-18 09:02:00,
2013-05-18 03:07:00,56.5,55.7,29.76,ENE,68,0.5,1.7,97,0.00,CLR,,0.10,WeatherDisplay:10.37,2013-05-18 09:07:00,
2013-05-18 03:12:00,56.5,55.7,29.76,ESE,112,2.0,2.3,97,0.00,CLR,,0.10,WeatherDisplay:10.37,2013-05-18 09:12:00,
2013-05-18 03:17:00,56.3,55.5,29.75,ESE,112,1.5,2.3,97,0.00,CLR,,0.10,WeatherDisplay:10.37,2013-05-18 09:17:00,
2013-05-18 03:22:00,56.1,55.3,29.75,SE,135,2.3,2.3,97,0.00,CLR,,0.10,WeatherDisplay:10.37,2013-05-18 09:22:00,
2013-05-18 03:27:00,56.1,55.3,29.75,SSE,158,4.2,4.6,97,0.00,CLR,,0.10,WeatherDisplay:10.37,2013-05-18 09:27:00,
2013-05-18 03:32:00,55.9,55.1,29.75,SSE,158,4.0,5.8,97,0.00,CLR,,0.10,WeatherDisplay:10.37,2013-05-18 09:32:00,
2013-05-18 03:37:00,55.6,54.8,29.75,ESE,112,3.5,4.6,97,0.00,CLR,,0.10,WeatherDisplay:10.37,2013-05-18 09:37:00,
2013-05-18 03:42:00,55.4,54.6,29.75,SSE,158,2.9,3.5,97,0.00,CLR,,0.10,WeatherDisplay:10.37,2013-05-18 09:42:00,
2013-05-18 03:47:00,55.4,54.6,29.75,ESE,112,2.4,2.4,97,0.00,CLR,,0.10,WeatherDisplay:10.37,2013-05-18 09:47:00,
2013-05-18 03:52:00,55.2,54.4,29.75,South,180,1.3,2.3,97,0.00,CLR,,0.10,WeatherDisplay:10.37,2013-05-18 09:52:00,
2013-05-18 03:57:00,55.0,54.2,29.75,South,180,2.8,3.5,97,0.00,CLR,,0.10,WeatherDisplay:10.37,2013-05-18 09:57:00,
2013-05-18 04:02:00,55.0,54.4,29.75,South,180,3.1,3.5,98,0.00,CLR,,0.10,WeatherDisplay:10.37,2013-05-18 10:02:00,
2013-05-18 04:07:00,54.7,54.1,29.77,SSW,202,2.5,2.7,98,0.00,CLR,,0.10,WeatherDisplay:10.37,2013-05-18 10:07:00,
2013-05-18 04:12:00,54.7,54.1,29.77,SSW,202,2.7,2.7,98,0.00,CLR,,0.10,WeatherDisplay:10.37,2013-05-18 10:12:00,
2013-05-18 04:17:00,54.9,54.3,29.77,SSW,202,4.4,5.8,98,0.00,CLR,,0.10,WeatherDisplay:10.37,2013-05-18 10:17:00,
2013-05-18 04:22:00,54.9,54.1,29.77,South,180,5.2,5.8,97,0.00,CLR,,0.10,WeatherDisplay:10.37,2013-05-18 10:22:00,
2013-05-18 04:27:00,54.9,54.1,29.77,SSW,202,4.5,5.8,97,0.00,CLR,,0.10,WeatherDisplay:10.37,2013-05-18 10:27:00,
2013-05-18 04:32:00,55.0,54.2,29.78,South,180,5.2,5.8,97,0.00,CLR,,0.10,WeatherDisplay:10.37,2013-05-18 10:32:00,
2013-05-18 04:37:00,55.0,53.9,29.78,SSW,202,4.1,5.8,96,0.00,CLR,,0.10,WeatherDisplay:10.37,2013-05-18 10:37:00,
2013-05-18 04:42:00,55.2,54.1,29.78,SSW,202,3.2,3.5,96,0.00,CLR,,0.10,WeatherDisplay:10.37,2013-05-18 10:42:00,
2013-05-18 04:47:00,55.2,54.1,29.78,South,180,2.9,3.5,96,0.00,CLR,,0.10,WeatherDisplay:10.37,2013-05-18 10:47:00,
2013-05-18 04:52:00,55.4,54.0,29.78,SSW,202,3.3,4.2,95,0.00,CLR,,0.10,WeatherDisplay:10.37,2013-05-18 10:52:00,
2013-05-18 04:57:00,55.4,54.0,29.79,SW,225,4.0,4.6,95,0.00,CLR,,0.10,WeatherDisplay:10.37,2013-05-18 10:57:00,
2013-05-18 05:02:00,55.4,54.0,29.79,SW,225,4.2,4.6,95,0.00,CLR,,0.10,WeatherDisplay:10.37,2013-05-18 11:02:00,
2013-05-18 05:07:00,55.4,54.0,29.78,SW,225,1.5,2.3,95,0.00,CLR,,0.10,WeatherDisplay:10.37,2013-05-18 11:07:00,
2013-05-18 05:12:00,55.0,53.6,29.78,West,270,1.5,2.3,95,0.00,SCT,,0.10,WeatherDisplay:10.37,2013-05-18 11:12:00,
2013-05-18 05:17:00,55.0,53.9,29.78,WSW,248,2.7,2.7,96,0.00,SCT,,0.10,WeatherDisplay:10.37,2013-05-18 11:17:00,
2013-05-18 05:22:00,55.0,53.9,29.78,WSW,248,2.7,2.7,96,0.00,SCT,,0.10,WeatherDisplay:10.37,2013-05-18 11:22:00,
2013-05-18 05:27:00,55.0,53.9,29.78,WSW,248,2.7,2.7,96,0.00,SCT,,0.10,WeatherDisplay:10.37,2013-05-18 11:27:00,
2013-05-18 05:32:00,55.0,53.9,29.78,WSW,248,2.7,2.7,96,0.00,SCT,,0.10,WeatherDisplay:10.37,2013-05-18 11:32:00,
2013-05-18 05:37:00,55.0,53.9,29.78,WSW,248,2.7,2.7,96,0.00,SCT,,0.10,WeatherDisplay:10.37,2013-05-18 11:37:00,
2013-05-18 05:42:00,55.0,53.9,29.78,WSW,248,2.7,2.7,96,0.00,SCT,,0.10,WeatherDisplay:10.37,2013-05-18 11:42:00,
2013-05-18 05:47:00,55.0,53.9,29.78,WSW,248,2.7,2.7,96,0.00,SCT,,0.10,WeatherDisplay:10.37,2013-05-18 11:47:00,
2013-05-18 05:52:00,55.0,53.9,29.78,WSW,248,2.7,2.7,96,0.00,SCT,,0.10,WeatherDisplay:10.37,2013-05-18 11:52:00,
2013-05-18 05:57:00,55.0,53.9,29.78,WSW,248,2.7,2.7,96,0.00,SCT,,0.10,WeatherDisplay:10.37,2013-05-18 11:57:00,
2013-05-18 06:02:00,55.0,53.9,29.78,WSW,248,2.7,2.7,96,0.00,SCT,,0.10,WeatherDisplay:10.37,2013-05-18 12:02:00,
2013-05-18 06:07:00,55.0,53.9,29.78,WSW,248,2.7,2.7,96,0.00,SCT,,0.10,WeatherDisplay:10.37,2013-05-18 12:07:00,
2013-05-18 06:12:00,55.0,53.9,29.78,WSW,248,2.7,2.7,96,0.00,CLR,,0.10,WeatherDisplay:10.37,2013-05-18 12:12:00,
2013-05-18 06:17:00,55.0,53.9,29.78,WSW,248,2.7,2.7,96,0.00,CLR,,0.10,WeatherDisplay:10.37,2013-05-18 12:17:00,
2013-05-18 06:22:00,55.0,53.9,29.78,WSW,248,2.7,2.7,96,0.00,CLR,,0.10,WeatherDisplay:10.37,2013-05-18 12:22:00,
2013-05-18 06:27:00,55.0,53.9,29.78,WSW,248,2.7,2.7,96,0.00,CLR,,0.10,WeatherDisplay:10.37,2013-05-18 12:27:00,
2013-05-18 06:32:00,55.0,53.9,29.78,WSW,248,2.7,2.7,96,0.00,CLR,,0.10,WeatherDisplay:10.37,2013-05-18 12:32:00,
2013-05-18 06:37:00,55.0,53.9,29.78,WSW,248,2.7,2.7,96,0.00,CLR,,0.10,WeatherDisplay:10.37,2013-05-18 12:37:00,
2013-05-18 06:42:00,55.0,53.9,29.78,WSW,248,2.7,2.7,96,0.00,CLR,,0.10,WeatherDisplay:10.37,2013-05-18 12:42:00,
2013-05-18 06:48:00,55.0,53.9,29.78,WSW,248,2.7,2.7,96,0.00,CLR,,0.10,WeatherDisplay:10.37,2013-05-18 12:48:00,
2013-05-18 06:53:00,55.0,53.9,29.78,WSW,248,2.7,2.7,96,0.00,CLR,,0.10,WeatherDisplay:10.37,2013-05-18 12:53:00,
2013-05-18 06:58:00,55.0,53.9,29.78,WSW,248,2.7,2.7,96,0.00,CLR,,0.10,WeatherDisplay:10.37,2013-05-18 12:58:00,
2013-05-18 07:03:00,55.0,53.9,29.78,WSW,248,2.7,2.7,96,0.00,CLR,,0.10,WeatherDisplay:10.37,2013-05-18 13:03:00,
2013-05-18 07:08:00,58.1,55.5,29.80,NW,315,1.1,2.3,91,0.00,RA,,0.10,WeatherDisplay:10.37,2013-05-18 13:08:00,
2013-05-18 07:13:00,58.8,55.6,29.80,North,360,2.4,2.7,89,0.00,RA,,0.10,WeatherDisplay:10.37,2013-05-18 13:13:00,
2013-05-18 07:18:00,58.3,55.1,29.81,ENE,68,2.5,3.5,89,0.01,RA,,0.11,WeatherDisplay:10.37,2013-05-18 13:18:00,
2013-05-18 07:23:00,58.1,55.2,29.81,NNE,22,3.0,3.5,90,0.01,RA,,0.11,WeatherDisplay:10.37,2013-05-18 13:23:00,
2013-05-18 07:28:00,58.6,55.7,29.81,NE,45,1.2,1.2,90,0.01,CLR,,0.11,WeatherDisplay:10.37,2013-05-18 13:28:00,
2013-05-18 07:33:00,58.6,55.4,29.81,NNE,22,2.2,3.5,89,0.01,CLR,,0.11,WeatherDisplay:10.37,2013-05-18 13:33:00,
2013-05-18 07:38:00,58.5,55.3,29.81,NNE,22,2.7,3.5,89,0.01,CLR,,0.11,WeatherDisplay:10.37,2013-05-18 13:38:00,
2013-05-18 07:43:00,58.5,55.6,29.81,NW,315,2.3,2.7,90,0.01,CLR,,0.11,WeatherDisplay:10.37,2013-05-18 13:43:00,
2013-05-18 07:48:00,58.5,55.9,29.81,NNW,338,2.6,3.5,91,0.01,CLR,,0.11,WeatherDisplay:10.37,2013-05-18 13:48:00,
2013-05-18 07:53:00,58.3,55.7,29.80,NNW,338,2.4,3.2,91,0.01,FEW,,0.11,WeatherDisplay:10.37,2013-05-18 13:53:00,
2013-05-18 07:58:00,58.8,56.2,29.80,NNE,22,1.0,2.7,91,0.01,FEW,,0.11,WeatherDisplay:10.37,2013-05-18 13:58:00,
2013-05-18 08:03:00,59.2,56.3,29.80,NW,315,1.6,2.3,90,0.01,FEW,,0.11,WeatherDisplay:10.37,2013-05-18 14:03:00,
2013-05-18 08:08:00,59.7,56.5,29.81,West,270,1.2,2.3,89,0.01,FEW,,0.11,WeatherDisplay:10.37,2013-05-18 14:08:00,
2013-05-18 08:13:00,60.3,56.7,29.81,WNW,292,2.3,2.3,88,0.01,BKN,,0.11,WeatherDisplay:10.37,2013-05-18 14:13:00,
2013-05-18 08:18:00,60.1,56.5,29.81,NE,45,3.5,3.5,88,0.00,BKN,,0.11,WeatherDisplay:10.37,2013-05-18 14:18:00,
2013-05-18 08:23:00,59.7,56.5,29.81,NE,45,3.5,4.6,89,0.00,BKN,,0.11,WeatherDisplay:10.37,2013-05-18 14:23:00,
2013-05-18 08:28:00,60.1,56.5,29.81,NNE,22,1.3,2.7,88,0.00,BKN,,0.11,WeatherDisplay:10.37,2013-05-18 14:28:00,
2013-05-18 08:33:00,60.6,56.7,29.81,West,270,2.1,3.5,87,0.00,BKN,,0.11,WeatherDisplay:10.37,2013-05-18 14:33:00,
2013-05-18 08:38:00,61.3,57.1,29.81,ENE,68,0.5,1.1,86,0.00,BKN,,0.11,WeatherDisplay:10.37,2013-05-18 14:38:00,
2013-05-18 08:43:00,60.4,56.5,29.81,WNW,292,2.4,3.5,87,0.00,BKN,,0.11,WeatherDisplay:10.37,2013-05-18 14:43:00,
2013-05-18 08:48:00,61.3,56.8,29.81,WNW,292,2.9,3.5,85,0.00,BKN,,0.11,WeatherDisplay:10.37,2013-05-18 14:48:00,
2013-05-18 08:53:00,60.8,56.9,29.81,West,270,2.0,3.5,87,0.00,BKN,,0.11,WeatherDisplay:10.37,2013-05-18 14:53:00,
2013-05-18 08:58:00,61.3,56.8,29.81,South,180,1.7,1.7,85,0.00,BKN,,0.11,WeatherDisplay:10.37,2013-05-18 14:58:00,
2013-05-18 09:03:00,61.2,56.7,29.81,SW,225,2.4,2.4,85,0.00,BKN,,0.11,WeatherDisplay:10.37,2013-05-18 15:03:00,
2013-05-18 09:08:00,61.2,56.7,29.81,SSE,158,2.4,2.4,85,0.00,BKN,,0.11,WeatherDisplay:10.37,2013-05-18 15:08:00,
2013-05-18 09:13:00,61.3,56.8,29.81,South,180,2.9,3.5,85,0.00,OVC,,0.11,WeatherDisplay:10.37,2013-05-18 15:13:00,
2013-05-18 09:18:00,61.0,56.5,29.81,SSW,202,3.1,3.5,85,0.00,OVC,,0.11,WeatherDisplay:10.37,2013-05-18 15:18:00,
2013-05-18 09:23:00,61.7,57.1,29.81,West,270,2.9,3.5,85,0.00,OVC,,0.11,WeatherDisplay:10.37,2013-05-18 15:23:00,
2013-05-18 09:28:00,62.6,57.4,29.81,WNW,292,3.4,4.6,83,0.00,OVC,,0.11,WeatherDisplay:10.37,2013-05-18 15:28:00,
2013-05-18 09:33:00,63.1,57.9,29.81,SW,225,5.1,6.3,83,0.00,OVC,,0.11,WeatherDisplay:10.37,2013-05-18 15:33:00,
2013-05-18 09:38:00,62.6,57.0,29.81,SSW,202,3.4,4.6,82,0.00,OVC,,0.11,WeatherDisplay:10.37,2013-05-18 15:38:00,
2013-05-18 09:43:00,63.9,57.6,29.81,South,180,1.9,2.3,80,0.00,OVC,,0.11,WeatherDisplay:10.37,2013-05-18 15:43:00,
2013-05-18 09:48:00,63.5,57.2,29.81,West,270,1.9,4.6,80,0.00,OVC,,0.11,WeatherDisplay:10.37,2013-05-18 15:48:00,
2013-05-18 09:53:00,63.1,57.5,29.81,SW,225,5.3,5.8,82,0.00,OVC,,0.11,WeatherDisplay:10.37,2013-05-18 15:53:00,
2013-05-18 09:58:00,63.3,57.0,29.81,SE,135,3.8,4.6,80,0.00,OVC,,0.11,WeatherDisplay:10.37,2013-05-18 15:58:00,
2013-05-18 10:03:00,64.2,57.2,29.81,SW,225,2.8,6.8,78,0.00,OVC,,0.11,WeatherDisplay:10.37,2013-05-18 16:03:00,
2013-05-18 10:08:00,63.5,56.9,29.81,SW,225,4.8,5.8,79,0.00,OVC,,0.11,WeatherDisplay:10.37,2013-05-18 16:08:00,
2013-05-18 10:13:00,63.3,57.4,29.81,SSW,202,4.6,5.8,81,0.00,OVC,,0.11,WeatherDisplay:10.37,2013-05-18 16:13:00,
2013-05-18 10:18:00,63.9,57.3,29.80,SW,225,3.5,4.7,79,0.00,OVC,,0.11,WeatherDisplay:10.37,2013-05-18 16:18:00,
2013-05-18 10:23:00,64.6,57.2,29.80,NNE,22,1.0,2.3,77,0.00,OVC,,0.11,WeatherDisplay:10.37,2013-05-18 16:23:00,
2013-05-18 10:28:00,64.9,58.2,29.80,West,270,1.5,2.7,79,0.00,OVC,,0.11,WeatherDisplay:10.37,2013-05-18 16:28:00,
2013-05-18 10:33:00,65.3,57.9,29.80,ENE,68,1.8,2.3,77,0.00,OVC,,0.11,WeatherDisplay:10.37,2013-05-18 16:33:00,
2013-05-18 10:38:00,64.4,57.0,29.80,NE,45,3.3,4.6,77,0.00,OVC,,0.11,WeatherDisplay:10.37,2013-05-18 16:38:00,
2013-05-18 10:43:00,64.4,57.4,29.80,SW,225,3.4,5.3,78,0.00,OVC,,0.11,WeatherDisplay:10.37,2013-05-18 16:43:00,
2013-05-18 10:48:00,65.1,57.3,29.80,SSW,202,3.1,3.7,76,0.00,OVC,,0.11,WeatherDisplay:10.37,2013-05-18 16:48:00,
2013-05-18 10:53:00,65.3,57.2,29.80,NE,45,3.3,4.2,75,0.00,OVC,,0.11,WeatherDisplay:10.37,2013-05-18 16:53:00,
2013-05-18 10:58:00,65.7,57.6,29.80,SSE,158,4.0,4.6,75,0.00,OVC,,0.11,WeatherDisplay:10.37,2013-05-18 16:58:00,
2013-05-18 11:03:00,65.7,57.9,29.80,SSW,202,3.1,4.7,76,0.00,OVC,,0.11,WeatherDisplay:10.37,2013-05-18 17:03:00,
2013-05-18 11:08:00,66.7,57.8,29.80,ESE,112,0.7,1.1,73,0.00,OVC,,0.11,WeatherDisplay:10.37,2013-05-18 17:08:00,
2013-05-18 11:13:00,67.3,58.0,29.80,South,180,2.3,2.7,72,0.00,OVC,,0.11,WeatherDisplay:10.37,2013-05-18 17:13:00,
2013-05-18 11:18:00,68.4,58.6,29.79,SW,225,3.4,4.6,71,0.00,OVC,,0.11,WeatherDisplay:10.37,2013-05-18 17:18:00,
2013-05-18 11:23:00,66.9,57.6,29.79,South,180,6.3,6.9,72,0.00,OVC,,0.11,WeatherDisplay:10.37,2013-05-18 17:23:00,
2013-05-18 11:28:00,66.7,57.8,29.80,SE,135,4.6,5.8,73,0.00,OVC,,0.11,WeatherDisplay:10.37,2013-05-18 17:28:00,
2013-05-18 11:33:00,68.0,58.6,29.80,SSW,202,3.9,4.6,72,0.00,OVC,,0.11,WeatherDisplay:10.37,2013-05-18 17:33:00,
2013-05-18 11:38:00,67.3,58.0,29.80,ESE,112,3.0,3.5,72,0.00,OVC,,0.11,WeatherDisplay:10.37,2013-05-18 17:38:00,
2013-05-18 11:43:00,66.4,57.1,29.79,SSW,202,5.4,5.8,72,0.00,OVC,,0.11,WeatherDisplay:10.37,2013-05-18 17:43:00,
2013-05-18 11:48:00,68.0,58.6,29.79,SSE,158,4.3,6.8,72,0.00,OVC,,0.11,WeatherDisplay:10.37,2013-05-18 17:48:00,
2013-05-18 11:53:00,66.7,57.8,29.80,SE,135,3.7,4.6,73,0.00,OVC,,0.11,WeatherDisplay:10.37,2013-05-18 17:53:00,
2013-05-18 11:58:00,67.3,58.7,29.80,SSE,158,4.1,5.8,74,0.00,OVC,,0.11,WeatherDisplay:10.37,2013-05-18 17:58:00,
2013-05-18 12:03:00,68.4,58.6,29.79,West,270,1.4,2.3,71,0.00,OVC,,0.11,WeatherDisplay:10.37,2013-05-18 18:03:00,
2013-05-18 12:08:00,67.3,58.3,29.79,South,180,4.0,5.8,73,0.00,OVC,,0.11,WeatherDisplay:10.37,2013-05-18 18:08:00,
2013-05-18 12:13:00,66.9,58.7,29.79,SSW,202,3.3,5.8,75,0.00,OVC,,0.11,WeatherDisplay:10.37,2013-05-18 18:13:00,
2013-05-18 12:18:00,67.3,58.0,29.79,ESE,112,5.2,8.1,72,0.00,OVC,,0.11,WeatherDisplay:10.37,2013-05-18 18:18:00,
2013-05-18 12:23:00,67.5,58.2,29.79,South,180,4.1,5.8,72,0.00,OVC,,0.11,WeatherDisplay:10.37,2013-05-18 18:23:00,
2013-05-18 12:28:00,67.6,58.2,29.79,SSE,158,5.8,8.1,72,0.00,OVC,,0.11,WeatherDisplay:10.37,2013-05-18 18:28:00,
2013-05-18 12:34:00,66.9,57.6,29.79,SW,225,3.4,4.7,72,0.00,OVC,,0.11,WeatherDisplay:10.37,2013-05-18 18:34:00,
2013-05-18 12:39:00,68.0,58.2,29.79,SSE,158,4.0,4.7,71,0.00,OVC,,0.11,WeatherDisplay:10.37,2013-05-18 18:39:00,
2013-05-18 12:44:00,67.5,57.8,29.79,SSE,158,5.2,5.8,71,0.00,OVC,,0.11,WeatherDisplay:10.37,2013-05-18 18:44:00,
2013-05-18 12:49:00,67.5,58.2,29.79,SSE,158,4.8,5.8,72,0.00,OVC,,0.11,WeatherDisplay:10.37,2013-05-18 18:49:00,
2013-05-18 12:54:00,69.4,58.8,29.78,NNW,338,3.9,4.7,69,0.00,OVC,,0.11,WeatherDisplay:10.37,2013-05-18 18:54:00,
2013-05-18 12:59:00,70.2,59.6,29.78,SW,225,7.7,8.3,69,0.00,OVC,,0.11,WeatherDisplay:10.37,2013-05-18 18:59:00,
2013-05-18 13:04:00,70.5,59.0,29.78,SE,135,4.7,5.8,67,0.00,OVC,,0.11,WeatherDisplay:10.37,2013-05-18 19:04:00,
2013-05-18 13:09:00,70.0,59.0,29.79,SSW,202,4.4,5.8,68,0.00,OVC,,0.11,WeatherDisplay:10.37,2013-05-18 19:09:00,
2013-05-18 13:14:00,71.2,59.3,29.79,WSW,248,5.2,5.8,66,0.00,BKN,,0.11,WeatherDisplay:10.37,2013-05-18 19:14:00,
2013-05-18 13:19:00,69.3,58.3,29.79,SW,225,4.3,4.7,68,0.00,BKN,,0.11,WeatherDisplay:10.37,2013-05-18 19:19:00,
2013-05-18 13:24:00,69.4,58.8,29.79,ESE,112,3.4,4.6,69,0.00,BKN,,0.11,WeatherDisplay:10.37,2013-05-18 19:24:00,
2013-05-18 13:29:00,69.8,58.8,29.78,West,270,3.5,4.6,68,0.00,BKN,,0.11,WeatherDisplay:10.37,2013-05-18 19:29:00,
2013-05-18 13:34:00,71.1,59.2,29.78,SSE,158,2.4,5.8,66,0.00,BKN,,0.11,WeatherDisplay:10.37,2013-05-18 19:34:00,
2013-05-18 13:39:00,71.2,59.3,29.78,SW,225,6.7,9.2,66,0.00,BKN,,0.11,WeatherDisplay:10.37,2013-05-18 19:39:00,
2013-05-18 13:44:00,71.1,58.7,29.78,SW,225,5.3,6.9,65,0.00,BKN,,0.11,WeatherDisplay:10.37,2013-05-18 19:44:00,
2013-05-18 13:49:00,71.1,58.3,29.78,WSW,248,3.1,5.8,64,0.00,BKN,,0.11,WeatherDisplay:10.37,2013-05-18 19:49:00,
2013-05-18 13:54:00,71.4,57.7,29.78,North,360,5.6,5.8,62,0.00,BKN,,0.11,WeatherDisplay:10.37,2013-05-18 19:54:00,
2013-05-18 13:59:00,72.0,58.7,29.78,WNW,292,3.2,4.6,63,0.00,BKN,,0.11,WeatherDisplay:10.37,2013-05-18 19:59:00,
2013-05-18 14:04:00,70.9,58.5,29.78,NNW,338,3.5,4.6,65,0.00,BKN,,0.11,WeatherDisplay:10.37,2013-05-18 20:04:00,
2013-05-18 14:09:00,72.0,58.3,29.77,ESE,112,3.4,3.5,62,0.00,BKN,,0.11,WeatherDisplay:10.37,2013-05-18 20:09:00,
2013-05-18 14:14:00,71.8,58.1,29.77,WNW,292,4.4,4.6,62,0.00,CLR,,0.11,WeatherDisplay:10.37,2013-05-18 20:14:00,
2013-05-18 14:19:00,75.4,58.1,29.77,SSE,158,2.0,3.7,55,0.00,CLR,,0.11,WeatherDisplay:10.37,2013-05-18 20:19:00,
2013-05-18 14:24:00,73.6,58.4,29.77,ESE,112,3.9,4.6,59,0.00,CLR,,0.11,WeatherDisplay:10.37,2013-05-18 20:24:00,
2013-05-18 14:29:00,72.9,58.7,29.77,ESE,112,3.7,4.6,61,0.00,CLR,,0.11,WeatherDisplay:10.37,2013-05-18 20:29:00,
2013-05-18 14:34:00,73.4,57.7,29.77,WNW,292,3.3,4.2,58,0.00,CLR,,0.11,WeatherDisplay:10.37,2013-05-18 20:34:00,
2013-05-18 14:39:00,73.0,57.8,29.77,South,180,3.4,4.6,59,0.00,CLR,,0.11,WeatherDisplay:10.37,2013-05-18 20:39:00,
2013-05-18 14:44:00,72.7,57.1,29.77,West,270,4.8,5.8,58,0.00,CLR,,0.11,WeatherDisplay:10.37,2013-05-18 20:44:00,
2013-05-18 14:49:00,74.1,56.9,29.77,WSW,248,2.8,4.6,55,0.00,CLR,,0.11,WeatherDisplay:10.37,2013-05-18 20:49:00,
2013-05-18 14:54:00,72.1,56.0,29.77,SE,135,2.7,3.5,57,0.00,CLR,,0.11,WeatherDisplay:10.37,2013-05-18 20:54:00,
2013-05-18 14:59:00,72.5,56.4,29.77,WSW,248,2.2,3.7,57,0.00,CLR,,0.11,WeatherDisplay:10.37,2013-05-18 20:59:00,
2013-05-18 15:04:00,72.3,57.2,29.77,WSW,248,3.2,4.6,59,0.00,CLR,,0.11,WeatherDisplay:10.37,2013-05-18 21:04:00,
2013-05-18 15:09:00,72.1,57.4,29.77,SW,225,5.4,5.8,60,0.00,CLR,,0.11,WeatherDisplay:10.37,2013-05-18 21:09:00,
2013-05-18 15:14:00,72.7,56.6,29.77,SW,225,4.5,5.8,57,0.00,SCT,,0.11,WeatherDisplay:10.37,2013-05-18 21:14:00,
2013-05-18 15:19:00,73.4,56.2,29.76,West,270,4.5,5.8,55,0.00,SCT,,0.11,WeatherDisplay:10.37,2013-05-18 21:19:00,
2013-05-18 15:24:00,73.6,55.9,29.76,WSW,248,3.8,6.8,54,0.00,SCT,,0.11,WeatherDisplay:10.37,2013-05-18 21:24:00,
2013-05-18 15:29:00,73.2,56.1,29.76,WSW,248,3.5,4.6,55,0.00,SCT,,0.11,WeatherDisplay:10.37,2013-05-18 21:29:00,
2013-05-18 15:34:00,73.4,56.2,29.76,ENE,68,4.5,4.6,55,0.00,SCT,,0.11,WeatherDisplay:10.37,2013-05-18 21:34:00,
2013-05-18 15:39:00,73.4,56.7,29.76,North,360,2.7,4.2,56,0.00,SCT,,0.11,WeatherDisplay:10.37,2013-05-18 21:39:00,
2013-05-18 15:44:00,73.4,56.7,29.75,NNW,338,2.7,5.3,56,0.00,SCT,,0.11,WeatherDisplay:10.37,2013-05-18 21:44:00,
2013-05-18 15:49:00,73.2,57.1,29.75,East,90,2.6,5.8,57,0.00,SCT,,0.11,WeatherDisplay:10.37,2013-05-18 21:49:00,
2013-05-18 15:54:00,74.5,57.3,29.76,SE,135,2.9,3.5,55,0.00,SCT,,0.11,WeatherDisplay:10.37,2013-05-18 21:54:00,
2013-05-18 15:59:00,73.8,57.1,29.76,ESE,112,2.7,3.5,56,0.00,SCT,,0.11,WeatherDisplay:10.37,2013-05-18 21:59:00,
2013-05-18 16:04:00,73.0,56.4,29.76,SSE,158,2.7,3.7,56,0.00,FEW,,0.11,WeatherDisplay:10.37,2013-05-18 22:04:00,
2013-05-18 16:09:00,74.3,56.6,29.76,SSE,158,2.2,2.7,54,0.00,FEW,,0.11,WeatherDisplay:10.37,2013-05-18 22:09:00,
2013-05-18 16:14:00,74.1,56.4,29.76,South,180,3.6,4.6,54,0.00,FEW,,0.11,WeatherDisplay:10.37,2013-05-18 22:14:00,
2013-05-18 16:19:00,73.9,56.7,29.76,SW,225,5.7,5.8,55,0.00,FEW,,0.11,WeatherDisplay:10.37,2013-05-18 22:19:00,
2013-05-18 16:24:00,73.9,57.2,29.76,SSE,158,3.1,3.7,56,0.00,FEW,,0.11,WeatherDisplay:10.37,2013-05-18 22:24:00,
2013-05-18 16:29:00,73.0,56.4,29.77,SW,225,4.0,5.8,56,0.00,FEW,,0.11,WeatherDisplay:10.37,2013-05-18 22:29:00,
2013-05-18 16:34:00,73.9,57.2,29.77,SSE,158,3.2,4.6,56,0.00,FEW,,0.11,WeatherDisplay:10.37,2013-05-18 22:34:00,
2013-05-18 16:39:00,74.1,56.9,29.77,SE,135,3.2,4.6,55,0.00,FEW,,0.11,WeatherDisplay:10.37,2013-05-18 22:39:00,
2013-05-18 16:44:00,74.7,58.5,29.77,ESE,112,2.5,3.5,57,0.00,FEW,,0.11,WeatherDisplay:10.37,2013-05-18 22:44:00,
2013-05-18 16:49:00,75.0,57.2,29.77,ESE,112,3.7,4.7,54,0.00,FEW,,0.11,WeatherDisplay:10.37,2013-05-18 22:49:00,
2013-05-18 16:54:00,74.3,56.6,29.76,ESE,112,4.0,4.6,54,0.00,FEW,,0.11,WeatherDisplay:10.37,2013-05-18 22:54:00,
2013-05-18 16:59:00,74.3,57.1,29.76,ESE,112,3.0,4.6,55,0.00,FEW,,0.11,WeatherDisplay:10.37,2013-05-18 22:59:00,
2013-05-18 17:04:00,73.6,56.4,29.76,SE,135,4.0,4.6,55,0.00,FEW,,0.11,WeatherDisplay:10.37,2013-05-18 23:04:00,
2013-05-18 17:09:00,73.6,56.4,29.76,ESE,112,4.2,4.6,55,0.00,FEW,,0.11,WeatherDisplay:10.37,2013-05-18 23:09:00,
2013-05-18 17:14:00,73.6,56.4,29.76,SSE,158,3.3,3.5,55,0.00,BKN,,0.11,WeatherDisplay:10.37,2013-05-18 23:14:00,
2013-05-18 17:19:00,74.5,56.8,29.75,ESE,112,2.5,3.7,54,0.00,BKN,,0.11,WeatherDisplay:10.37,2013-05-18 23:19:00,
2013-05-18 17:24:00,74.3,56.6,29.75,ESE,112,3.8,5.8,54,0.00,BKN,,0.11,WeatherDisplay:10.37,2013-05-18 23:24:00,
2013-05-18 17:29:00,74.7,56.9,29.75,SE,135,3.1,4.6,54,0.00,BKN,,0.11,WeatherDisplay:10.37,2013-05-18 23:29:00,
2013-05-18 17:34:00,74.5,57.3,29.75,SE,135,2.9,4.7,55,0.00,BKN,,0.11,WeatherDisplay:10.37,2013-05-18 23:34:00,
2013-05-18 17:39:00,74.5,57.3,29.75,ESE,112,3.0,3.5,55,0.00,BKN,,0.11,WeatherDisplay:10.37,2013-05-18 23:39:00,
2013-05-18 17:44:00,73.8,56.6,29.75,SE,135,4.8,5.8,55,0.00,BKN,,0.11,WeatherDisplay:10.37,2013-05-18 23:44:00,
2013-05-18 17:50:00,73.4,56.7,29.75,ESE,112,2.9,4.6,56,0.00,BKN,,0.11,WeatherDisplay:10.37,2013-05-18 23:50:00,
2013-05-18 17:55:00,73.4,56.7,29.74,East,90,3.2,4.6,56,0.00,BKN,,0.11,WeatherDisplay:10.37,2013-05-18 23:55:00,
2013-05-18 18:00:00,72.9,59.1,29.74,ESE,112,4.2,4.7,62,0.00,BKN,,0.11,WeatherDisplay:10.37,2013-05-19 00:00:00,
2013-05-18 18:05:00,72.0,59.2,29.74,East,90,5.4,5.8,64,0.00,BKN,,0.11,WeatherDisplay:10.37,2013-05-19 00:05:00,
2013-05-18 18:10:00,72.1,59.7,29.74,ESE,112,3.4,4.6,65,0.00,BKN,,0.11,WeatherDisplay:10.37,2013-05-19 00:10:00,
2013-05-18 18:15:00,72.3,59.9,29.74,ESE,112,2.7,3.5,65,0.00,CLR,,0.11,WeatherDisplay:10.37,2013-05-19 00:15:00,
2013-05-18 18:20:00,72.9,59.1,29.74,NNE,22,3.8,4.6,62,0.00,CLR,,0.11,WeatherDisplay:10.37,2013-05-19 00:20:00,
2013-05-18 18:25:00,73.0,58.8,29.74,NE,45,4.2,5.8,61,0.00,CLR,,0.11,WeatherDisplay:10.37,2013-05-19 00:25:00,
2013-05-18 18:30:00,72.3,59.4,29.73,WNW,292,6.2,6.9,64,0.00,CLR,,0.11,WeatherDisplay:10.37,2013-05-19 00:30:00,
2013-05-18 18:35:00,72.0,60.0,29.73,NE,45,7.7,9.2,66,0.00,CLR,,0.11,WeatherDisplay:10.37,2013-05-19 00:35:00,
2013-05-18 18:40:00,71.4,60.3,29.73,East,90,5.6,6.9,68,0.00,CLR,,0.11,WeatherDisplay:10.37,2013-05-19 00:40:00,
2013-05-18 18:45:00,70.9,59.8,29.73,SE,135,4.0,4.6,68,0.00,CLR,,0.11,WeatherDisplay:10.37,2013-05-19 00:45:00,
2013-05-18 18:50:00,71.1,60.0,29.73,NNE,22,4.3,6.8,68,0.00,CLR,,0.11,WeatherDisplay:10.37,2013-05-19 00:50:00,
2013-05-18 18:55:00,70.5,59.4,29.72,NE,45,8.2,12.7,68,0.00,CLR,,0.11,WeatherDisplay:10.37,2013-05-19 00:55:00,
2013-05-18 19:00:00,69.6,59.4,29.72,East,90,9.4,11.4,70,0.00,CLR,,0.11,WeatherDisplay:10.37,2013-05-19 01:00:00,
2013-05-18 19:05:00,69.4,59.2,29.73,ENE,68,6.0,6.9,70,0.00,CLR,,0.11,WeatherDisplay:10.37,2013-05-19 01:05:00,
2013-05-18 19:10:00,69.4,59.2,29.73,NE,45,6.8,6.9,70,0.00,CLR,,0.11,WeatherDisplay:10.37,2013-05-19 01:10:00,
2013-05-18 19:15:00,68.4,58.6,29.73,ESE,112,5.8,7.3,71,0.00,SCT,,0.11,WeatherDisplay:10.37,2013-05-19 01:15:00,
2013-05-18 19:20:00,68.0,58.2,29.74,NNE,22,7.0,8.1,71,0.00,SCT,,0.11,WeatherDisplay:10.37,2013-05-19 01:20:00,
2013-05-18 19:25:00,67.8,58.4,29.74,North,360,6.9,10.4,72,0.00,SCT,,0.11,WeatherDisplay:10.37,2013-05-19 01:25:00,
2013-05-18 19:30:00,67.3,58.0,29.74,NNW,338,7.9,11.5,72,0.00,SCT,,0.11,WeatherDisplay:10.37,2013-05-19 01:30:00,
2013-05-18 19:35:00,66.4,57.5,29.74,West,270,8.3,8.3,73,0.00,SCT,,0.11,WeatherDisplay:10.37,2013-05-19 01:35:00,
2013-05-18 19:40:00,63.9,56.5,29.74,NW,315,7.8,8.1,77,0.00,SCT,,0.11,WeatherDisplay:10.37,2013-05-19 01:40:00,
2013-05-18 19:45:00,63.3,56.7,29.76,NE,45,4.5,6.8,79,0.00,SCT,,0.11,WeatherDisplay:10.37,2013-05-19 01:45:00,
2013-05-18 19:50:00,62.6,57.0,29.76,ENE,68,7.8,10.4,82,0.00,SCT,,0.11,WeatherDisplay:10.37,2013-05-19 01:50:00,
2013-05-18 19:55:00,62.6,57.0,29.76,ENE,68,6.3,6.3,82,0.00,OVC,,0.11,WeatherDisplay:10.37,2013-05-19 01:55:00,
2013-05-18 20:00:00,61.9,57.3,29.76,NE,45,14.3,16.1,85,0.00,OVC,,0.11,WeatherDisplay:10.37,2013-05-19 02:00:00,
2013-05-18 20:05:00,60.8,57.5,29.77,NE,45,8.8,16.6,89,0.01,RA,,0.12,WeatherDisplay:10.37,2013-05-19 02:05:00,
2013-05-18 20:10:00,60.8,58.2,29.77,East,90,8.4,8.4,91,0.02,RA,,0.13,WeatherDisplay:10.37,2013-05-19 02:10:00,
2013-05-18 20:15:00,60.4,57.8,29.77,ENE,68,8.4,12.7,91,0.02,-RA,,0.13,WeatherDisplay:10.37,2013-05-19 02:15:00,
2013-05-18 20:20:00,60.4,57.8,29.77,ENE,68,11.1,12.7,91,0.02,-RA,,0.13,WeatherDisplay:10.37,2013-05-19 02:20:00,
2013-05-18 20:25:00,60.3,57.7,29.77,NW,315,9.3,12.7,91,0.02,-RA,,0.13,WeatherDisplay:10.37,2013-05-19 02:25:00,
2013-05-18 20:30:00,60.1,57.5,29.77,NE,45,8.0,9.2,91,0.02,-RA,,0.13,WeatherDisplay:10.37,2013-05-19 02:30:00,
2013-05-18 20:35:00,59.9,57.6,29.77,NE,45,9.8,13.8,92,0.02,-RA,,0.13,WeatherDisplay:10.37,2013-05-19 02:35:00,
2013-05-18 20:40:00,59.7,57.4,29.76,SW,225,10.2,12.7,92,0.02,-RA,,0.13,WeatherDisplay:10.37,2013-05-19 02:40:00,
2013-05-18 20:45:00,59.5,57.2,29.76,NE,45,10.0,12.7,92,0.02,-RA,,0.13,WeatherDisplay:10.37,2013-05-19 02:45:00,
2013-05-18 20:50:00,59.5,57.2,29.76,NE,45,4.2,8.1,92,0.02,-RA,,0.13,WeatherDisplay:10.37,2013-05-19 02:50:00,
2013-05-18 20:55:00,59.4,57.1,29.75,East,90,6.6,12.4,92,0.02,-RA,,0.13,WeatherDisplay:10.37,2013-05-19 02:55:00,
2013-05-18 21:00:00,59.2,56.9,29.75,North,360,5.1,8.3,92,0.02,-RA,,0.13,WeatherDisplay:10.37,2013-05-19 03:00:00,
2013-05-18 21:05:00,59.2,56.9,29.74,ESE,112,8.1,12.7,92,0.01,-RA,,0.13,WeatherDisplay:10.37,2013-05-19 03:05:00,
2013-05-18 21:10:00,59.0,56.7,29.74,East,90,8.5,10.4,92,0.00,-RA,,0.13,WeatherDisplay:10.37,2013-05-19 03:10:00,
2013-05-18 21:15:00,58.8,56.5,29.74,ESE,112,9.5,11.5,92,0.00,CLR,,0.13,WeatherDisplay:10.37,2013-05-19 03:15:00,
2013-05-18 21:20:00,58.8,56.5,29.76,East,90,4.8,6.9,92,0.00,CLR,,0.13,WeatherDisplay:10.37,2013-05-19 03:20:00,
2013-05-18 21:25:00,59.0,56.7,29.76,East,90,6.5,7.8,92,0.00,CLR,,0.13,WeatherDisplay:10.37,2013-05-19 03:25:00,
2013-05-18 21:30:00,59.2,56.3,29.78,NNW,338,5.5,9.2,90,0.00,CLR,,0.13,WeatherDisplay:10.37,2013-05-19 03:30:00,
2013-05-18 21:35:00,59.4,55.8,29.78,ESE,112,3.8,9.2,88,0.00,CLR,,0.13,WeatherDisplay:10.37,2013-05-19 03:35:00,
2013-05-18 21:40:00,59.4,56.2,29.78,ENE,68,6.5,6.9,89,0.00,CLR,,0.13,WeatherDisplay:10.37,2013-05-19 03:40:00,
2013-05-18 21:45:00,59.4,56.2,29.78,ESE,112,5.1,6.9,89,0.00,CLR,,0.13,WeatherDisplay:10.37,2013-05-19 03:45:00,
2013-05-18 21:50:00,59.5,55.6,29.78,NNE,22,5.9,6.9,87,0.00,CLR,,0.13,WeatherDisplay:10.37,2013-05-19 03:50:00,
2013-05-18 21:55:00,59.5,55.3,29.78,NNW,338,3.4,5.8,86,0.00,CLR,,0.13,WeatherDisplay:10.37,2013-05-19 03:55:00,
2013-05-18 22:00:00,59.5,55.3,29.78,NE,45,6.3,8.3,86,0.00,CLR,,0.13,WeatherDisplay:10.37,2013-05-19 04:00:00,
2013-05-18 22:01:00,59.5,55.3,29.78,NE,45,6.6,8.3,86,0.00,CLR,,0.13,WeatherDisplay:10.37,2013-05-19 04:01:00,
2013-05-18 22:06:00,59.2,55.0,29.77,NE,45,5.9,8.1,86,0.00,CLR,,0.13,WeatherDisplay:10.37,2013-05-19 04:06:00,
2013-05-18 22:11:00,58.8,54.9,29.77,NE,45,6.0,9.2,87,0.00,OVC,,0.13,WeatherDisplay:10.37,2013-05-19 04:11:00,
2013-05-18 22:17:00,58.3,55.4,29.77,NNE,22,6.2,9.2,90,0.00,OVC,,0.13,WeatherDisplay:10.37,2013-05-19 04:17:00,
2013-05-18 22:22:00,58.3,55.7,29.77,ENE,68,6.2,8.1,91,0.00,OVC,,0.13,WeatherDisplay:10.37,2013-05-19 04:22:00,
2013-05-18 22:27:00,58.5,56.2,29.77,NE,45,5.1,6.9,92,0.00,OVC,,0.13,WeatherDisplay:10.37,2013-05-19 04:27:00,
2013-05-18 22:32:00,58.8,56.8,29.77,NNE,22,6.5,9.2,93,0.00,OVC,,0.13,WeatherDisplay:10.37,2013-05-19 04:32:00,
2013-05-18 22:37:00,58.8,56.8,29.77,NE,45,5.8,6.9,93,0.00,OVC,,0.13,WeatherDisplay:10.37,2013-05-19 04:37:00,
2013-05-18 22:42:00,59.0,57.0,29.76,NNW,338,6.8,9.2,93,0.00,OVC,,0.13,WeatherDisplay:10.37,2013-05-19 04:42:00,
2013-05-18 22:47:00,59.0,57.0,29.76,NE,45,6.8,9.2,93,0.00,OVC,,0.13,WeatherDisplay:10.37,2013-05-19 04:47:00,
2013-05-18 22:52:00,59.0,57.0,29.76,NE,45,7.7,14.0,93,0.00,OVC,,0.13,WeatherDisplay:10.37,2013-05-19 04:52:00,
2013-05-18 22:57:00,59.0,57.0,29.77,NE,45,6.7,10.4,93,0.00,OVC,,0.13,WeatherDisplay:10.37,2013-05-19 04:57:00,
2013-05-18 23:02:00,59.0,57.0,29.77,North,360,6.2,9.2,93,0.00,OVC,,0.13,WeatherDisplay:10.37,2013-05-19 05:02:00,
2013-05-18 23:07:00,59.0,57.0,29.76,NW,315,5.7,8.1,93,0.00,OVC,,0.13,WeatherDisplay:10.37,2013-05-19 05:07:00,
2013-05-18 23:12:00,58.8,56.8,29.76,NNE,22,8.0,12.7,93,0.00,-RA,,0.13,WeatherDisplay:10.37,2013-05-19 05:12:00,
2013-05-18 23:17:00,58.8,56.8,29.76,ENE,68,5.7,6.9,93,0.00,-RA,,0.13,WeatherDisplay:10.37,2013-05-19 05:17:00,
2013-05-18 23:22:00,58.8,56.8,29.76,NNE,22,7.6,11.5,93,0.00,-RA,,0.13,WeatherDisplay:10.37,2013-05-19 05:22:00,
2013-05-18 23:27:00,58.8,56.8,29.76,NE,45,5.0,5.8,93,0.00,-RA,,0.13,WeatherDisplay:10.37,2013-05-19 05:27:00,
2013-05-18 23:32:00,58.8,56.8,29.76,NE,45,6.7,8.1,93,0.00,OVC,,0.13,WeatherDisplay:10.37,2013-05-19 05:32:00,
2013-05-18 23:37:00,58.8,56.8,29.76,NNW,338,6.4,6.9,93,0.00,OVC,,0.13,WeatherDisplay:10.37,2013-05-19 05:37:00,
2013-05-18 23:42:00,58.6,56.6,29.77,NE,45,5.1,9.2,93,0.00,OVC,,0.13,WeatherDisplay:10.37,2013-05-19 05:42:00,
2013-05-18 23:47:00,58.6,56.3,29.77,ENE,68,4.9,6.9,92,0.00,OVC,,0.13,WeatherDisplay:10.37,2013-05-19 05:47:00,
2013-05-18 23:52:00,58.5,56.2,29.77,NNE,22,5.1,8.8,92,0.00,OVC,,0.13,WeatherDisplay:10.37,2013-05-19 05:52:00,
2013-05-18 23:57:00,58.3,56.3,29.77,NE,45,6.0,6.9,93,0.00,OVC,,0.13,WeatherDisplay:10.37,2013-05-19 05:57:00,